Time;durP1;ratioP1;P1;durP2;ratioP2;P2;SDS_P1;SDS_P2;PMS_P1;PMS_P2;Temp;Humidity;BMP_temperature;BMP_pressure;BME280_temperature;BME280_humidity;BME280_pressure;Samples;Min_cycle;Max_cycle;Signal;HPM_P1;HPM_P2
2022/08/05 00:01:36;;;;;;;15.43;7.30;;;;;;;21.66;72.85;101350.53;6011586;29;20238;-71
2022/08/05 00:04:57;;;;;;;11.82;6.78;;;;;;;21.89;72.77;101353.94;6013972;29;20234;-70
2022/08/05 00:08:18;;;;;;;7.25;6.40;;;;;;;22.03;71.59;101361.25;6014361;29;20312;-69
2022/08/05 00:11:39;;;;;;;11.15;6.45;;;;;;;21.87;72.22;101367.03;6014902;29;20262;-71
2022/08/05 00:15:00;;;;;;;10.45;5.30;;;;;;;22.08;71.30;101369.75;6013823;29;20276;-71
2022/08/05 00:18:22;;;;;;;8.77;5.50;;;;;;;22.02;71.70;101375.19;6013283;29;20242;-70
2022/08/05 00:21:43;;;;;;;9.43;5.63;;;;;;;21.90;71.17;101374.88;6010436;29;20250;-71
2022/08/05 00:25:04;;;;;;;8.75;5.65;;;;;;;22.00;70.30;101358.06;6004843;29;20242;-71
2022/08/05 00:28:25;;;;;;;7.78;4.85;;;;;;;21.90;70.45;101363.03;6009418;29;20230;-71
2022/08/05 00:31:47;;;;;;;5.32;3.25;;;;;;;22.17;69.12;101373.19;6013334;29;20242;-70
2022/08/05 00:35:09;;;;;;;4.38;3.95;;;;;;;21.89;69.18;101372.31;6013218;29;20787;-70
2022/08/05 00:38:30;;;;;;;4.68;4.00;;;;;;;21.76;68.62;101362.03;6015756;29;20253;-70
2022/08/05 00:41:51;;;;;;;4.82;3.67;;;;;;;21.94;68.31;101345.97;6014132;29;20313;-71
2022/08/05 00:45:12;;;;;;;4.53;3.28;;;;;;;21.74;68.31;101368.75;6010970;29;20255;-70
2022/08/05 00:48:33;;;;;;;4.68;3.25;;;;;;;21.89;66.97;101378.66;6014233;29;20684;-70
2022/08/05 00:51:56;;;;;;;6.15;4.05;;;;;;;21.79;66.48;101386.34;6014893;29;20243;-70
2022/08/05 00:55:17;;;;;;;4.65;4.07;;;;;;;21.77;66.10;101382.97;6014342;29;20234;-70
2022/08/05 00:58:38;;;;;;;4.18;2.70;;;;;;;21.49;65.86;101390.25;6015125;29;20254;-70
2022/08/05 01:01:59;;;;;;;4.38;3.03;;;;;;;21.52;66.31;101386.28;6016738;29;20623;-70
2022/08/05 01:05:20;;;;;;;2.88;2.22;;;;;;;21.52;64.72;101380.78;6012579;29;20238;-69
2022/08/05 01:08:43;;;;;;;2.90;2.22;;;;;;;21.19;66.31;101392.25;6014457;29;20227;-69
2022/08/05 01:12:08;;;;;;;8.27;3.10;;;;;;;21.44;65.49;101385.34;6013022;29;20235;-70
2022/08/05 01:15:34;;;;;;;6.18;2.55;;;;;;;21.65;64.74;101375.44;6009801;29;20255;-69
2022/08/05 01:19:06;;;;;;;5.90;2.95;;;;;;;21.42;65.27;101381.13;6011943;29;20278;-70
2022/08/05 01:22:40;;;;;;;3.75;2.33;;;;;;;21.54;64.68;101375.94;6007471;29;21736;-69
2022/08/05 01:26:22;;;;;;;4.03;2.10;;;;;;;21.48;64.96;101372.09;6012870;29;20238;-70
2022/08/05 01:29:48;;;;;;;5.47;2.75;;;;;;;21.73;65.08;101370.66;6011980;29;20621;-70
2022/08/05 01:33:12;;;;;;;3.58;2.42;;;;;;;21.54;64.36;101363.09;6014172;29;20321;-70
2022/08/05 01:36:39;;;;;;;3.33;2.15;;;;;;;21.80;63.34;101332.31;6006235;29;20528;-70
2022/08/05 01:40:02;;;;;;;4.80;2.22;;;;;;;21.52;63.48;101313.03;6012886;29;20629;-70
2022/08/05 01:43:25;;;;;;;2.30;1.95;;;;;;;21.37;63.64;101332.31;6016066;29;20230;-70
2022/08/05 01:46:48;;;;;;;3.45;2.33;;;;;;;21.40;64.10;101331.91;6009351;29;20665;-69
2022/08/05 01:50:12;;;;;;;4.25;2.60;;;;;;;21.31;64.43;101313.03;6011362;29;20239;-70
2022/08/05 01:53:36;;;;;;;4.50;2.10;;;;;;;21.51;63.57;101275.66;6012698;29;20250;-70
2022/08/05 01:56:59;;;;;;;6.18;2.22;;;;;;;21.57;63.52;101269.38;6011509;29;20234;-69
2022/08/05 02:00:21;;;;;;;3.38;2.15;;;;;;;21.26;63.68;101263.38;6010359;29;20552;-70
2022/08/05 02:03:46;;;;;;;3.10;1.98;;;;;;;21.31;64.40;101264.50;6013199;29;20499;-69
2022/08/05 02:07:07;;;;;;;5.15;2.17;;;;;;;20.94;64.98;101270.22;6012055;29;20609;-70
2022/08/05 02:10:37;;;;;;;4.70;2.45;;;;;;;20.94;65.15;101283.06;6012589;29;20846;-70
2022/08/05 02:14:05;;;;;;;3.63;2.05;;;;;;;21.06;64.91;101271.44;6002274;29;20250;-70
2022/08/05 02:17:33;;;;;;;4.43;2.70;;;;;;;21.16;64.57;101260.97;6014268;29;20688;-70
2022/08/05 02:21:00;;;;;;;2.50;2.15;;;;;;;21.32;64.24;101237.91;6015772;29;20317;-71
2022/08/05 02:24:27;;;;;;;2.78;2.25;;;;;;;21.53;62.88;101223.34;6012226;29;20249;-71
2022/08/05 02:27:50;;;;;;;2.72;2.42;;;;;;;21.44;63.39;101228.13;6013517;29;20239;-70
2022/08/05 02:31:14;;;;;;;4.50;2.08;;;;;;;21.48;63.38;101246.75;6013260;29;20329;-70
2022/08/05 02:34:36;;;;;;;3.33;2.17;;;;;;;21.32;62.78;101238.75;6012251;29;20230;-70
2022/08/05 02:37:59;;;;;;;3.42;2.10;;;;;;;21.28;63.72;101259.41;6012725;29;20242;-70
2022/08/05 02:41:22;;;;;;;4.25;2.00;;;;;;;21.32;62.71;101277.16;6014712;29;20254;-68
2022/08/05 02:44:44;;;;;;;2.72;2.10;;;;;;;20.40;65.72;101362.03;6015348;29;20668;-69
2022/08/05 02:48:08;;;;;;;1.95;1.63;;;;;;;20.06;66.73;101368.00;6015180;29;20250;-70
2022/08/05 02:51:30;;;;;;;6.18;2.22;;;;;;;20.49;67.01;101334.34;6017598;29;20242;-69
2022/08/05 02:54:54;;;;;;;2.55;1.90;;;;;;;20.47;68.84;101314.50;6015980;29;20337;-71
2022/08/05 02:58:16;;;;;;;5.68;2.80;;;;;;;20.78;68.88;101277.81;6011467;29;20246;-68
2022/08/05 03:01:40;;;;;;;4.45;2.42;;;;;;;20.97;68.54;101268.94;6012169;29;20238;-69
2022/08/05 03:05:03;;;;;;;5.10;2.30;;;;;;;20.99;69.21;101275.09;6014156;29;20242;-70
2022/08/05 03:08:24;;;;;;;5.63;2.42;;;;;;;20.75;70.52;101297.38;6015697;29;20239;-70
2022/08/05 03:11:46;;;;;;;5.43;4.93;;;;;;;20.66;70.70;101293.88;6016101;29;20234;-70
2022/08/05 03:15:09;;;;;;;6.95;5.90;;;;;;;20.60;71.71;101290.03;6014109;29;22298;-70
2022/08/05 03:18:30;;;;;;;6.88;6.28;;;;;;;20.50;71.37;101288.63;6012979;29;20329;-69
2022/08/05 03:21:52;;;;;;;8.32;7.00;;;;;;;20.36;72.00;101273.88;6017489;29;20238;-70
2022/08/05 03:25:13;;;;;;;5.25;3.38;;;;;;;20.37;72.45;101282.97;6014686;29;20234;-69
2022/08/05 03:28:37;;;;;;;4.25;3.33;;;;;;;20.48;72.07;101301.66;6013849;29;20231;-69
2022/08/05 03:31:58;;;;;;;4.53;3.38;;;;;;;20.51;71.78;101318.56;6014952;29;20239;-70
2022/08/05 03:35:20;;;;;;;6.75;4.72;;;;;;;20.56;71.19;101307.91;6013735;29;20266;-69
2022/08/05 03:38:42;;;;;;;5.30;3.95;;;;;;;20.64;71.05;101315.16;6015194;29;20239;-69
2022/08/05 03:42:03;;;;;;;4.82;3.92;;;;;;;20.59;71.15;101312.97;6013659;29;20688;-70
2022/08/05 03:45:25;;;;;;;5.85;4.10;;;;;;;20.15;72.66;101320.31;6015083;29;20254;-69
2022/08/05 03:48:46;;;;;;;7.70;4.25;;;;;;;19.95;73.71;101310.94;6018763;29;20640;-69
2022/08/05 03:52:11;;;;;;;3.50;3.05;;;;;;;20.04;73.48;101308.97;6011638;29;20689;-70
2022/08/05 03:55:37;;;;;;;9.07;7.40;;;;;;;20.18;72.45;101294.44;6015297;29;20239;-70
2022/08/05 03:59:02;;;;;;;5.80;5.30;;;;;;;19.81;73.04;101282.53;6017423;29;20258;-70
2022/08/05 04:02:28;;;;;;;6.85;6.20;;;;;;;19.98;73.64;101296.03;6012689;29;20230;-70
2022/08/05 04:05:50;;;;;;;5.22;4.57;;;;;;;19.93;73.41;101296.59;6011594;29;20254;-69
2022/08/05 04:09:11;;;;;;;11.02;9.60;;;;;;;20.04;72.67;101303.50;6013174;29;20617;-70
2022/08/05 04:12:33;;;;;;;8.57;7.00;;;;;;;20.13;72.73;101313.34;6013596;29;20238;-68
2022/08/05 04:15:54;;;;;;;4.88;4.45;;;;;;;20.19;72.52;101299.75;6015504;29;20341;-70
2022/08/05 04:19:16;;;;;;;8.57;7.70;;;;;;;19.97;72.55;101300.66;6012445;29;20242;-67
2022/08/05 04:22:37;;;;;;;4.97;4.40;;;;;;;20.00;73.57;101299.44;6012323;29;20239;-70
2022/08/05 04:25:58;;;;;;;3.38;2.88;;;;;;;19.95;73.26;101305.47;6011095;29;20557;-70
2022/08/05 04:29:19;;;;;;;6.07;2.88;;;;;;;19.58;74.37;101309.06;6011767;29;21027;-69
2022/08/05 04:32:40;;;;;;;7.03;3.78;;;;;;;19.90;73.65;101319.72;6009742;29;20270;-69
2022/08/05 04:36:03;;;;;;;7.28;6.63;;;;;;;20.01;72.45;101329.34;6016583;29;20613;-68
2022/08/05 04:39:24;;;;;;;5.50;4.95;;;;;;;20.08;72.98;101318.50;6011729;29;20242;-69
2022/08/05 04:42:45;;;;;;;5.38;3.50;;;;;;;19.79;74.16;101317.44;6010590;29;20395;-68
2022/08/05 04:46:06;;;;;;;5.20;4.13;;;;;;;19.71;74.52;101344.84;6011219;29;20234;-68
2022/08/05 04:49:27;;;;;;;3.55;3.25;;;;;;;20.06;73.46;101347.97;6014075;29;20246;-68
2022/08/05 04:52:50;;;;;;;7.00;5.25;;;;;;;20.01;72.89;101347.66;6015792;29;20621;-69
2022/08/05 04:56:10;;;;;;;3.88;3.55;;;;;;;20.01;73.18;101351.25;6016393;29;20325;-69
2022/08/05 04:59:31;;;;;;;5.47;4.55;;;;;;;19.90;73.46;101368.97;6013143;29;20234;-69
2022/08/05 05:02:52;;;;;;;3.83;3.22;;;;;;;20.20;72.10;101385.50;6010523;29;20238;-69
2022/08/05 05:06:13;;;;;;;4.25;3.83;;;;;;;20.10;72.93;101385.75;6011188;29;20239;-68
2022/08/05 05:09:35;;;;;;;2.90;2.60;;;;;;;20.06;72.85;101403.56;6014299;29;20238;-69
2022/08/05 05:12:56;;;;;;;4.38;3.42;;;;;;;19.98;73.08;101408.28;6014588;29;20238;-68
2022/08/05 05:16:17;;;;;;;5.70;4.38;;;;;;;19.93;72.87;101406.94;6016479;29;20250;-68
2022/08/05 05:19:40;;;;;;;3.85;3.20;;;;;;;20.26;71.50;101391.09;6011455;29;20242;-68
2022/08/05 05:23:03;;;;;;;5.13;3.20;;;;;;;20.54;69.71;101388.56;6017328;29;20272;-69
2022/08/05 05:26:25;;;;;;;5.85;5.30;;;;;;;20.40;70.64;101379.28;6012095;29;20835;-68
2022/08/05 05:29:46;;;;;;;4.28;3.97;;;;;;;20.52;68.93;101372.34;6008341;29;20238;-69
2022/08/05 05:33:08;;;;;;;4.38;4.05;;;;;;;20.46;70.04;101383.19;6010956;29;20231;-68
2022/08/05 05:36:29;;;;;;;7.68;6.95;;;;;;;20.54;69.90;101377.63;6001233;29;20887;-69
2022/08/05 05:39:50;;;;;;;8.95;8.05;;;;;;;20.48;70.74;101378.38;6005905;29;20242;-69
2022/08/05 05:43:13;;;;;;;7.38;4.63;;;;;;;20.03;71.27;101384.78;6006418;29;20326;-70
2022/08/05 05:46:33;;;;;;;4.82;4.45;;;;;;;20.05;71.61;101403.78;6005064;29;20246;-70
2022/08/05 05:49:55;;;;;;;5.32;3.85;;;;;;;20.01;71.01;101386.84;6007765;29;21432;-72
2022/08/05 05:53:16;;;;;;;6.93;3.63;;;;;;;20.07;71.93;101380.63;6009363;29;20775;-69
2022/08/05 05:56:36;;;;;;;5.18;3.60;;;;;;;20.08;71.30;101379.59;6011161;29;20246;-69
2022/08/05 05:59:59;;;;;;;4.55;3.38;;;;;;;20.02;72.38;101388.56;6005368;29;20803;-70
2022/08/05 06:03:20;;;;;;;4.18;3.15;;;;;;;20.00;72.41;101418.00;6007465;29;20241;-71
2022/08/05 06:06:42;;;;;;;5.50;3.47;;;;;;;19.99;71.92;101418.16;6017154;29;20689;-71
2022/08/05 06:10:03;;;;;;;6.50;4.40;;;;;;;19.69;72.14;101431.72;6004327;29;20235;-68
2022/08/05 06:13:24;;;;;;;4.85;3.75;;;;;;;19.76;72.88;101412.72;6010154;29;20235;-70
2022/08/05 06:16:47;;;;;;;5.20;3.15;;;;;;;20.04;72.09;101402.91;6006204;29;20245;-70
2022/08/05 06:20:09;;;;;;;6.70;3.80;;;;;;;20.14;72.16;101402.63;6002866;29;20239;-69
2022/08/05 06:23:30;;;;;;;7.63;5.35;;;;;;;20.25;71.16;101402.22;5997837;29;20314;-70
2022/08/05 06:26:51;;;;;;;5.22;3.33;;;;;;;20.56;70.62;101392.84;6009872;29;20234;-69
2022/08/05 06:30:14;;;;;;;3.95;3.13;;;;;;;20.53;69.70;101395.06;6009301;29;20238;-71
2022/08/05 06:33:36;;;;;;;5.47;3.33;;;;;;;20.47;70.39;101415.00;6008030;29;21063;-68
2022/08/05 06:36:58;;;;;;;3.55;3.25;;;;;;;20.47;70.64;101421.34;6006504;29;20608;-69
2022/08/05 06:40:19;;;;;;;6.90;3.63;;;;;;;20.63;68.92;101406.63;6013304;29;20258;-68
2022/08/05 06:43:40;;;;;;;4.97;4.32;;;;;;;20.85;68.69;101391.13;6015290;29;20250;-68
2022/08/05 06:47:01;;;;;;;5.28;4.70;;;;;;;21.16;67.20;101398.09;6000925;29;20960;-67
2022/08/05 06:50:23;;;;;;;3.78;3.17;;;;;;;20.82;68.79;101406.03;6012784;29;20609;-68
2022/08/05 06:53:44;;;;;;;14.55;13.25;;;;;;;21.37;68.06;101391.81;6002322;29;20587;-69
2022/08/05 06:57:06;;;;;;;6.47;5.97;;;;;;;21.86;65.46;101398.25;6017770;29;20230;-68
2022/08/05 07:00:26;;;;;;;6.22;4.75;;;;;;;21.79;65.59;101405.56;6013357;29;20238;-72
2022/08/05 07:03:47;;;;;;;4.75;4.28;;;;;;;22.02;65.68;101425.47;6015961;29;20242;-70
2022/08/05 07:07:10;;;;;;;3.53;3.25;;;;;;;22.06;65.62;101424.03;6015514;29;20234;-70
2022/08/05 07:10:31;;;;;;;6.05;5.30;;;;;;;22.15;64.77;101422.00;6010630;29;20246;-70
2022/08/05 07:17:31;;;;;;;4.47;4.07;;;;;;;21.54;66.30;101415.22;6007978;29;20273;-70
2022/08/05 07:20:52;;;;;;;3.70;3.38;;;;;;;21.43;66.73;101416.56;6002408;29;20254;-70
2022/08/05 07:24:15;;;;;;;9.70;8.88;;;;;;;21.45;66.75;101421.88;6001029;29;21074;-70
2022/08/05 07:27:36;;;;;;;8.93;8.23;;;;;;;21.54;66.41;101408.88;6013217;29;20239;-72
2022/08/05 07:30:57;;;;;;;5.47;5.07;;;;;;;21.38;67.39;101412.72;6012415;29;20742;-69
2022/08/05 07:34:17;;;;;;;4.57;4.15;;;;;;;21.29;68.12;101416.63;6020122;29;20594;-68
2022/08/05 07:37:39;;;;;;;4.82;3.20;;;;;;;21.04;67.94;101418.84;6013711;29;20235;-68
2022/08/05 07:41:01;;;;;;;4.50;3.05;;;;;;;21.12;67.83;101415.13;6013887;29;20239;-67
2022/08/05 07:44:22;;;;;;;3.80;2.97;;;;;;;20.96;68.82;101412.56;6013426;29;20243;-69
2022/08/05 07:47:43;;;;;;;5.20;3.22;;;;;;;21.13;68.38;101414.09;6014291;29;20753;-69
2022/08/05 07:51:04;;;;;;;4.72;2.95;;;;;;;20.87;69.43;101408.22;6013232;29;20239;-68
2022/08/05 07:54:26;;;;;;;3.97;2.72;;;;;;;20.88;68.32;101405.28;6015456;29;20246;-68
2022/08/05 07:57:50;;;;;;;4.97;3.28;;;;;;;20.84;69.18;101419.59;6015033;29;20277;-69
2022/08/05 08:01:11;;;;;;;3.85;3.30;;;;;;;21.04;68.63;101434.44;6016037;29;20573;-68
2022/08/05 08:04:32;;;;;;;3.92;2.85;;;;;;;21.22;67.17;101432.13;6016940;29;20759;-68
2022/08/05 08:07:55;;;;;;;3.00;2.38;;;;;;;21.13;67.83;101433.31;6015687;29;20250;-69
2022/08/05 08:11:15;;;;;;;6.75;2.83;;;;;;;20.89;69.58;101419.84;6012228;29;20329;-71
2022/08/05 08:14:37;;;;;;;4.78;2.88;;;;;;;20.87;69.48;101413.69;6017179;29;20234;-69
2022/08/05 08:17:58;;;;;;;3.58;2.47;;;;;;;20.81;69.75;101429.03;6284121;23;20243;-70
2022/08/05 08:21:20;;;;;;;3.33;2.45;;;;;;;20.98;69.24;101424.19;6007252;29;20227;-69
2022/08/05 08:24:40;;;;;;;4.80;2.30;;;;;;;20.88;70.06;101412.69;6004639;29;20266;-69
2022/08/05 08:28:02;;;;;;;3.53;2.40;;;;;;;20.77;69.99;101419.47;6005638;29;20315;-69
2022/08/05 08:31:24;;;;;;;2.40;2.20;;;;;;;20.86;68.78;101421.06;5999947;29;20234;-70
2022/08/05 08:34:45;;;;;;;6.10;3.03;;;;;;;20.82;69.66;101427.16;5992631;29;20329;-70
2022/08/05 08:38:06;;;;;;;4.93;2.65;;;;;;;20.74;69.40;101419.84;6000501;29;20238;-69
2022/08/05 08:41:29;;;;;;;3.90;2.90;;;;;;;20.88;69.41;101424.47;6000690;29;20242;-69
2022/08/05 08:44:55;;;;;;;4.07;3.42;;;;;;;20.57;70.18;101430.13;5998834;29;20239;-70
2022/08/05 08:48:20;;;;;;;3.50;2.90;;;;;;;20.69;70.46;101433.28;6006027;29;20246;-72
2022/08/05 08:51:46;;;;;;;8.43;6.60;;;;;;;20.54;71.00;101446.97;6009644;29;20633;-70
2022/08/05 08:55:08;;;;;;;4.72;4.32;;;;;;;20.62;69.21;101452.34;6005301;29;20356;-70
2022/08/05 08:58:30;;;;;;;3.42;2.90;;;;;;;20.81;68.85;101456.44;5997488;29;20242;-69
2022/08/05 09:01:52;;;;;;;4.43;3.65;;;;;;;20.42;70.70;101464.88;6002263;29;20687;-68
2022/08/05 09:05:14;;;;;;;4.90;3.28;;;;;;;20.12;71.17;101473.16;6003662;29;20230;-68
2022/08/05 09:08:35;;;;;;;5.03;2.60;;;;;;;20.12;70.21;101473.16;5993991;29;20548;-67
2022/08/05 09:11:57;;;;;;;6.53;4.55;;;;;;;20.30;70.98;101481.94;5999608;29;20520;-69
2022/08/05 09:15:18;;;;;;;5.13;3.90;;;;;;;20.38;70.41;101477.25;6000737;29;20238;-69
2022/08/05 09:18:39;;;;;;;4.30;3.33;;;;;;;20.60;70.06;101481.84;5999601;29;20246;-70
2022/08/05 09:22:01;;;;;;;3.13;2.85;;;;;;;20.56;68.92;101490.63;5999296;29;20343;-69
2022/08/05 09:25:23;;;;;;;4.80;2.67;;;;;;;20.49;69.63;101495.13;5992867;29;20242;-71
2022/08/05 09:28:46;;;;;;;3.38;2.20;;;;;;;20.69;68.84;101491.66;5998645;29;20794;-70
2022/08/05 09:32:09;;;;;;;4.40;2.78;;;;;;;20.86;68.61;101478.63;5998734;29;20805;-70
2022/08/05 09:35:30;;;;;;;5.35;2.33;;;;;;;20.80;67.97;101479.38;6000538;29;20802;-69
2022/08/05 09:39:00;;;;;;;6.30;1.88;;;;;;;20.81;68.11;101474.75;6007183;29;20242;-70
2022/08/05 09:42:22;;;;;;;6.03;2.47;;;;;;;20.94;67.39;101475.81;6001739;29;20238;-70
2022/08/05 09:45:45;;;;;;;2.53;1.88;;;;;;;21.06;66.81;101479.81;6009283;29;20466;-72
2022/08/05 09:49:23;;;;;;;2.25;2.00;;;;;;;21.21;65.38;101468.84;5991252;29;20834;-70
2022/08/05 09:52:44;;;;;;;4.22;2.30;;;;;;;21.22;64.72;101467.78;6001224;29;20243;-68
2022/08/05 09:56:07;;;;;;;2.58;2.22;;;;;;;21.10;65.20;101470.16;6002304;29;20231;-68
2022/08/05 09:59:28;;;;;;;2.65;2.08;;;;;;;20.92;65.89;101457.84;5995229;29;20238;-71
2022/08/05 10:02:53;;;;;;;3.15;2.90;;;;;;;20.73;66.56;101462.00;6004064;29;20247;-68
2022/08/05 10:06:19;;;;;;;4.93;1.83;;;;;;;20.97;66.58;101464.47;6007585;29;20244;-70
2022/08/05 10:09:54;;;;;;;3.05;1.90;;;;;;;21.22;65.68;101467.78;6002551;29;20223;-69
2022/08/05 10:13:29;;;;;;;3.17;2.58;;;;;;;21.23;65.58;101475.00;5995883;29;20231;-69
2022/08/05 10:16:51;;;;;;;3.35;2.20;;;;;;;21.10;65.98;101485.78;5996151;29;20239;-72
2022/08/05 10:20:13;;;;;;;4.82;3.08;;;;;;;20.77;67.14;101495.38;5999312;29;20238;-74
2022/08/05 10:23:38;;;;;;;5.00;2.90;;;;;;;20.58;67.95;101504.97;6008432;29;20242;-69
2022/08/05 10:27:00;;;;;;;7.80;2.40;;;;;;;20.48;68.11;101502.50;6001811;29;20348;-69
2022/08/05 10:30:22;;;;;;;4.30;2.88;;;;;;;20.12;70.23;101498.66;6009218;29;20508;-69
2022/08/05 10:33:43;;;;;;;3.10;2.40;;;;;;;20.38;69.74;101501.06;6006582;29;20242;-69
2022/08/05 10:37:04;;;;;;;2.50;2.00;;;;;;;20.35;69.05;101493.19;6002546;29;20239;-69
2022/08/05 10:40:33;;;;;;;3.67;2.78;;;;;;;20.27;70.59;101506.97;6000353;29;20827;-70
2022/08/05 10:43:59;;;;;;;4.85;2.58;;;;;;;20.41;69.97;101507.00;5994320;29;20557;-69
2022/08/05 10:47:31;;;;;;;2.70;2.00;;;;;;;20.60;67.40;101514.72;6006955;29;20266;-68
2022/08/05 10:51:01;;;;;;;7.25;6.65;;;;;;;20.21;69.92;101526.88;6008896;29;20238;-68
2022/08/05 10:54:23;;;;;;;4.20;3.75;;;;;;;20.21;69.92;101513.19;6015950;29;20238;-69
2022/08/05 10:57:45;;;;;;;3.95;3.17;;;;;;;20.47;69.34;101516.38;6009980;29;20234;-68
2022/08/05 11:01:06;;;;;;;2.95;2.40;;;;;;;20.17;70.52;101520.84;6010709;29;20250;-69
2022/08/05 11:04:29;;;;;;;3.42;2.75;;;;;;;20.00;70.83;101535.72;6019041;29;20235;-68
2022/08/05 11:08:01;;;;;;;2.83;2.20;;;;;;;20.08;70.70;101554.81;6017761;29;20242;-68
2022/08/05 11:11:33;;;;;;;10.23;3.53;;;;;;;20.05;70.30;101574.34;6025151;29;20234;-69
2022/08/05 11:15:06;;;;;;;3.97;3.22;;;;;;;20.06;71.49;101562.38;6019959;29;20234;-69
2022/08/05 11:18:28;;;;;;;2.95;2.38;;;;;;;20.05;72.26;101563.38;6020500;29;20274;-68
2022/08/05 11:21:51;;;;;;;3.00;2.20;;;;;;;20.04;72.30;101564.44;6023926;29;20246;-68
2022/08/05 11:25:28;;;;;;;4.68;1.60;;;;;;;20.20;71.39;101578.03;6015025;29;20518;-69
2022/08/05 11:28:51;;;;;;;2.58;1.70;;;;;;;20.02;70.97;101579.31;6021762;29;20254;-70
2022/08/05 11:32:26;;;;;;;4.97;1.70;;;;;;;19.83;70.79;101581.50;6014328;29;20346;-68
2022/08/05 11:35:54;;;;;;;1.95;1.77;;;;;;;19.94;69.54;101580.25;6012159;29;20262;-68
2022/08/05 11:39:32;;;;;;;3.38;1.20;;;;;;;19.75;70.09;101583.41;6012624;29;20673;-66
2022/08/05 11:42:53;;;;;;;4.35;1.83;;;;;;;19.36;70.63;101591.59;6008803;29;20792;-68
2022/08/05 11:46:14;;;;;;;3.20;2.10;;;;;;;19.54;70.59;101594.09;6005241;29;20239;-68
2022/08/05 11:49:36;;;;;;;2.10;1.70;;;;;;;19.71;71.91;101599.31;6018968;29;20246;-69
2022/08/05 11:53:04;;;;;;;2.42;1.45;;;;;;;20.03;69.97;101594.69;6023534;29;20234;-68
2022/08/05 11:56:43;;;;;;;2.28;1.80;;;;;;;20.19;68.68;101606.44;6012643;29;20246;-68
2022/08/05 12:00:05;;;;;;;4.03;2.53;;;;;;;20.35;68.61;101605.50;6017941;29;20621;-67
2022/08/05 12:03:41;;;;;;;4.15;2.58;;;;;;;20.23;69.54;101604.22;6016190;29;20561;-67
2022/08/05 12:07:03;;;;;;;3.30;2.33;;;;;;;20.23;70.37;101607.81;6020771;29;20250;-68
2022/08/05 12:10:26;;;;;;;3.58;2.53;;;;;;;20.26;70.48;101612.91;6012300;29;20573;-67
2022/08/05 12:13:55;;;;;;;2.55;2.15;;;;;;;20.34;70.64;101629.28;6017505;29;20234;-68
2022/08/05 12:17:17;;;;;;;3.10;2.00;;;;;;;19.92;70.79;101626.09;6019672;29;20229;-67
2022/08/05 12:20:38;;;;;;;3.45;2.03;;;;;;;19.74;71.08;101634.53;6019623;29;20268;-67
2022/08/05 12:24:01;;;;;;;1.85;1.73;;;;;;;20.00;70.89;101626.06;6015673;29;20330;-68
2022/08/05 12:27:23;;;;;;;3.28;2.05;;;;;;;20.17;69.23;101638.59;6016820;29;20548;-67
2022/08/05 12:30:46;;;;;;;1.80;1.63;;;;;;;20.51;68.42;101639.09;6016407;29;20329;-68
2022/08/05 12:34:08;;;;;;;3.38;2.72;;;;;;;20.73;67.52;101634.69;6004154;29;20258;-68
2022/08/05 12:37:29;;;;;;;4.90;3.10;;;;;;;20.96;67.34;101634.66;6009886;29;20230;-68
2022/08/05 12:40:50;;;;;;;2.92;2.63;;;;;;;20.98;67.91;101627.09;6002638;29;20632;-67
2022/08/05 12:44:12;;;;;;;2.88;1.73;;;;;;;21.07;65.65;101618.63;6005466;29;20563;-67
2022/08/05 12:47:35;;;;;;;3.50;1.80;;;;;;;20.68;67.46;101635.22;6001046;29;20255;-67
2022/08/05 12:51:16;;;;;;;4.18;3.30;;;;;;;21.01;69.04;101637.66;6003199;29;20891;-67
2022/08/05 12:54:36;;;;;;;2.85;2.00;;;;;;;20.86;66.72;101634.88;6001998;29;20254;-67
2022/08/05 12:57:59;;;;;;;7.07;5.45;;;;;;;21.36;67.01;101632.38;6004542;29;20238;-67
2022/08/05 13:01:23;;;;;;;10.30;9.27;;;;;;;21.94;65.26;101628.81;6004191;29;20314;-66
2022/08/05 13:04:45;;;;;;;10.25;9.25;;;;;;;22.74;63.12;101623.16;6007044;29;20413;-67
2022/08/05 13:08:06;;;;;;;5.30;3.38;;;;;;;23.25;61.94;101627.44;6004345;29;20244;-67
2022/08/05 13:11:30;;;;;;;4.10;2.15;;;;;;;22.90;60.37;101626.53;6012130;29;20235;-67
2022/08/05 13:14:52;;;;;;;3.33;2.00;;;;;;;26.19;51.39;101623.50;6016856;29;20235;-67
2022/08/05 13:18:13;;;;;;;2.28;1.60;;;;;;;26.37;50.66;101632.78;6017771;29;20241;-67
2022/08/05 13:21:35;;;;;;;4.07;2.63;;;;;;;30.02;41.63;101631.09;6017659;29;20230;-67
2022/08/05 13:25:00;;;;;;;3.40;1.65;;;;;;;28.39;43.75;101632.78;6012682;29;20262;-67
2022/08/05 13:28:21;;;;;;;5.50;2.88;;;;;;;27.28;46.52;101633.19;6019449;29;20231;-68
2022/08/05 13:31:43;;;;;;;4.15;3.75;;;;;;;26.08;52.37;101633.34;6014473;29;20234;-67
2022/08/05 13:35:05;;;;;;;2.60;2.38;;;;;;;24.35;53.48;101645.66;6014787;29;20238;-67
2022/08/05 13:38:28;;;;;;;2.10;1.67;;;;;;;23.27;57.11;101647.34;6016825;29;20235;-66
2022/08/05 13:41:49;;;;;;;3.75;1.45;;;;;;;22.83;57.03;101638.50;6024490;29;20299;-67
2022/08/05 13:45:11;;;;;;;2.50;1.70;;;;;;;22.70;59.82;101630.97;6019055;29;20234;-68
2022/08/05 13:48:32;;;;;;;6.85;1.75;;;;;;;23.14;58.03;101614.22;6018708;29;20242;-66
2022/08/05 13:51:52;;;;;;;2.90;2.10;;;;;;;23.22;58.76;101622.31;6018215;29;20230;-67
2022/08/05 13:55:14;;;;;;;3.60;2.28;;;;;;;23.25;57.00;101626.56;6022696;29;20728;-68
2022/08/05 13:58:35;;;;;;;4.00;3.65;;;;;;;23.86;54.50;101619.38;6008243;29;20250;-67
2022/08/05 14:01:58;;;;;;;2.65;1.60;;;;;;;25.28;51.61;101617.16;6016456;29;20238;-67
2022/08/05 14:05:19;;;;;;;4.60;4.15;;;;;;;25.00;51.84;101622.03;6011520;29;20230;-67
2022/08/05 14:08:40;;;;;;;3.10;2.10;;;;;;;23.73;54.12;101622.91;6011066;29;20242;-68
2022/08/05 14:12:04;;;;;;;2.30;1.98;;;;;;;23.25;55.71;101627.44;6000225;29;20250;-66
2022/08/05 14:15:25;;;;;;;2.13;2.03;;;;;;;22.40;56.83;101625.75;6018178;29;20234;-69
2022/08/05 14:18:46;;;;;;;1.73;1.60;;;;;;;21.72;60.24;101632.47;6009807;29;20270;-68
2022/08/05 14:22:07;;;;;;;13.82;9.35;;;;;;;22.25;60.01;101634.91;6015719;29;20720;-69
2022/08/05 14:25:28;;;;;;;5.00;3.58;;;;;;;22.11;59.74;101644.00;6013110;29;20242;-68
2022/08/05 14:28:50;;;;;;;3.15;1.85;;;;;;;21.69;60.60;101643.00;6022318;29;20255;-69
2022/08/05 14:32:11;;;;;;;3.67;1.42;;;;;;;22.19;58.96;101630.19;6011313;29;20283;-68
2022/08/05 14:35:32;;;;;;;4.90;4.38;;;;;;;22.18;60.39;101628.47;6015342;29;20336;-68
2022/08/05 14:38:54;;;;;;;9.30;8.40;;;;;;;22.25;60.18;101629.41;6016329;29;20234;-69
2022/08/05 14:42:15;;;;;;;6.97;3.15;;;;;;;22.61;59.74;101623.06;6021479;29;20242;-68
2022/08/05 14:45:37;;;;;;;5.88;2.80;;;;;;;21.73;61.33;101628.72;6007660;29;20226;-68
2022/08/05 14:49:01;;;;;;;3.45;2.28;;;;;;;21.79;61.29;101625.19;6004107;29;20829;-68
2022/08/05 14:52:22;;;;;;;8.95;6.07;;;;;;;21.96;60.98;101631.38;6007659;29;20277;-69
2022/08/05 14:55:43;;;;;;;2.15;1.95;;;;;;;21.79;61.64;101635.31;6005470;29;20231;-68
2022/08/05 14:59:04;;;;;;;2.38;2.10;;;;;;;22.09;60.45;101645.28;6005295;29;20234;-68
2022/08/05 15:02:26;;;;;;;4.00;2.45;;;;;;;23.11;58.53;101646.78;6002651;29;20235;-68
2022/08/05 15:05:47;;;;;;;4.28;2.67;;;;;;;22.97;58.75;101652.16;6005779;29;20267;-68
2022/08/05 15:09:08;;;;;;;4.10;2.08;;;;;;;22.31;60.67;101658.00;6005491;29;20334;-69
2022/08/05 15:12:29;;;;;;;2.33;2.05;;;;;;;21.09;63.08;101654.09;6008423;29;20238;-68
2022/08/05 15:15:50;;;;;;;7.72;5.65;;;;;;;23.08;59.49;101639.78;6018976;29;20262;-69
2022/08/05 15:19:13;;;;;;;2.85;2.15;;;;;;;23.26;57.32;101637.38;6015846;29;20223;-69
2022/08/05 15:22:34;;;;;;;3.53;2.45;;;;;;;22.46;59.27;101630.47;6027176;29;20246;-67
2022/08/05 15:25:54;;;;;;;5.25;3.03;;;;;;;22.13;60.24;101630.94;6026107;29;20321;-68
2022/08/05 15:29:15;;;;;;;2.13;1.80;;;;;;;21.29;60.84;101647.03;6021207;29;20243;-64
2022/08/05 15:32:36;;;;;;;2.95;2.05;;;;;;;20.48;63.96;101657.81;6025487;29;20238;-68
2022/08/05 15:35:58;;;;;;;3.22;2.38;;;;;;;20.97;63.39;101644.56;6033199;29;20295;-67
2022/08/05 15:39:19;;;;;;;3.00;2.80;;;;;;;21.05;63.95;101648.13;6019247;29;20242;-67
2022/08/05 15:42:40;;;;;;;4.55;3.53;;;;;;;21.33;64.15;101704.09;6020264;29;20599;-68
2022/08/05 15:46:01;;;;;;;3.55;2.38;;;;;;;21.08;67.03;101710.84;6025138;29;20317;-68